PWSweather.com
Personal Weather Stations
Station Observations
DW1039
Liberty & Fairfield Townships, Hamilton, OH 45011

Liberty & Fairfield TownshipsHamilton, OH 45011

Lat: 39.3933, Lon: -84.477

Elevation: 780

Station Type: Davis Vantage Pro2 (Daytime Fan Aspirated)

http://www.lfweathercenter.com/

High Low Average
Temperature 47.3°F8.5°C 33.9°F1.1°C 39.5°F4.2°C
Dew Point 46.2°F7.9°C 32.1°F0.1°C 38.1°F3.4°C
Winds 11.0 mph 17.7 kmh Calm Calm 2.0 mph SE3.2 kmh SE
Wind Gusts 14.0 mph22.5 kmh -- 6.0 mph9.7 kmh
Humidity 97% 93% 95%
Pressure 30.13 in1020.3 mb 29.63 in1003.4 mb -
Precipitation 0.00 in0.0 mm - -
Hour Temp Dew Point Humidity Winds Wind Gusts Pressure Precip Precip Rate Daily Precip Total
12:40 AM 33.9°F1.1°C 32.1°F0.1°C 93% 2.0 mph E3.2 kmh E 4.0 mph6.4 kmh 30.13 in1020.3 mb 0.00 in0.0 mm 0.00 in/hr0.0 mm/hr 0.00 in0.0 mm
12:50 AM 34.0°F1.1°C 32.2°F0.1°C 93% Calm Calm 3.0 mph4.8 kmh 30.13 in1020.3 mb 0.00 in0.0 mm 0.00 in/hr0.0 mm/hr 0.00 in0.0 mm
01:00 AM 34.0°F1.1°C 32.2°F0.1°C 93% Calm Calm 4.0 mph6.4 kmh 30.11 in1019.6 mb 0.00 in0.0 mm 0.00 in/hr0.0 mm/hr 0.00 in0.0 mm
01:10 AM 34.0°F1.1°C 32.2°F0.1°C 93% 3.0 mph E4.8 kmh E 4.0 mph6.4 kmh 30.11 in1019.6 mb 0.00 in0.0 mm 0.00 in/hr0.0 mm/hr 0.00 in0.0 mm
01:20 AM 34.0°F1.1°C 32.2°F0.1°C 93% Calm Calm 6.0 mph9.7 kmh 30.11 in1019.6 mb 0.00 in0.0 mm 0.00 in/hr0.0 mm/hr 0.00 in0.0 mm
01:30 AM 34.1°F1.2°C 32.3°F0.2°C 93% 1.0 mph NE1.6 kmh NE 3.0 mph4.8 kmh 30.11 in1019.6 mb 0.00 in0.0 mm 0.00 in/hr0.0 mm/hr 0.00 in0.0 mm
01:41 AM 34.1°F1.2°C 32.3°F0.2°C 93% 3.0 mph ENE4.8 kmh ENE 6.0 mph9.7 kmh 30.09 in1019.0 mb 0.00 in0.0 mm 0.00 in/hr0.0 mm/hr 0.00 in0.0 mm
01:50 AM 34.1°F1.2°C 32.3°F0.2°C 93% Calm Calm 7.0 mph11.3 kmh 30.08 in1018.6 mb 0.00 in0.0 mm 0.00 in/hr0.0 mm/hr 0.00 in0.0 mm
02:00 AM 34.1°F1.2°C 32.3°F0.2°C 93% Calm Calm 6.0 mph9.7 kmh 30.08 in1018.6 mb 0.00 in0.0 mm 0.00 in/hr0.0 mm/hr 0.00 in0.0 mm
02:10 AM 34.0°F1.1°C 32.2°F0.1°C 93% 1.0 mph ENE1.6 kmh ENE 6.0 mph9.7 kmh 30.07 in1018.3 mb 0.00 in0.0 mm 0.00 in/hr0.0 mm/hr 0.00 in0.0 mm
02:20 AM 34.0°F1.1°C 32.2°F0.1°C 93% 2.0 mph NE3.2 kmh NE 4.0 mph6.4 kmh 30.07 in1018.3 mb 0.00 in0.0 mm 0.00 in/hr0.0 mm/hr 0.00 in0.0 mm
02:30 AM 34.1°F1.2°C 32.3°F0.2°C 93% 5.0 mph NE8.0 kmh NE 6.0 mph9.7 kmh 30.07 in1018.3 mb 0.00 in0.0 mm 0.00 in/hr0.0 mm/hr 0.00 in0.0 mm
02:50 AM 34.1°F1.2°C 32.3°F0.2°C 93% Calm Calm 6.0 mph9.7 kmh 30.05 in1017.6 mb 0.00 in0.0 mm 0.00 in/hr0.0 mm/hr 0.00 in0.0 mm
03:00 AM 34.1°F1.2°C 32.3°F0.2°C 93% 3.0 mph ENE4.8 kmh ENE 10.0 mph16.1 kmh 30.05 in1017.6 mb 0.00 in0.0 mm 0.00 in/hr0.0 mm/hr 0.00 in0.0 mm
03:10 AM 34.3°F1.3°C 32.5°F0.3°C 93% 3.0 mph N4.8 kmh N 10.0 mph16.1 kmh 30.04 in1017.3 mb 0.00 in0.0 mm 0.00 in/hr0.0 mm/hr 0.00 in0.0 mm
03:20 AM 34.3°F1.3°C 32.5°F0.3°C 93% 3.0 mph E4.8 kmh E 7.0 mph11.3 kmh 30.03 in1016.9 mb 0.00 in0.0 mm 0.00 in/hr0.0 mm/hr 0.00 in0.0 mm
03:30 AM 34.4°F1.3°C 32.6°F0.3°C 93% Calm Calm 12.0 mph19.3 kmh 30.03 in1016.9 mb 0.00 in0.0 mm 0.00 in/hr0.0 mm/hr 0.00 in0.0 mm
03:40 AM 34.6°F1.4°C 32.8°F0.4°C 93% 3.0 mph ENE4.8 kmh ENE 9.0 mph14.5 kmh 30.01 in1016.3 mb 0.00 in0.0 mm 0.00 in/hr0.0 mm/hr 0.00 in0.0 mm
03:50 AM 34.7°F1.5°C 32.9°F0.5°C 93% 6.0 mph NE9.7 kmh NE 7.0 mph11.3 kmh 30.02 in1016.6 mb 0.00 in0.0 mm 0.00 in/hr0.0 mm/hr 0.00 in0.0 mm
04:00 AM 34.8°F1.6°C 33.0°F0.6°C 93% Calm Calm 7.0 mph11.3 kmh 30.02 in1016.6 mb 0.00 in0.0 mm 0.00 in/hr0.0 mm/hr 0.00 in0.0 mm
04:10 AM 35.0°F1.7°C 33.2°F0.7°C 93% 6.0 mph NE9.7 kmh NE 6.0 mph9.7 kmh 30.01 in1016.3 mb 0.01 in0.3 mm 0.06 in/hr1.5 mm/hr 0.01 in0.3 mm
04:20 AM 35.0°F1.7°C 33.2°F0.7°C 93% 5.0 mph NE8.0 kmh NE 6.0 mph9.7 kmh 30.01 in1016.3 mb 0.02 in0.5 mm 0.06 in/hr1.5 mm/hr 0.02 in0.5 mm
04:30 AM 35.0°F1.7°C 33.2°F0.7°C 93% 5.0 mph NE8.0 kmh NE 7.0 mph11.3 kmh 29.99 in1015.6 mb 0.03 in0.8 mm 0.06 in/hr1.5 mm/hr 0.03 in0.8 mm
04:50 AM 34.9°F1.6°C 33.4°F0.8°C 94% Calm Calm 7.0 mph11.3 kmh 29.99 in1015.6 mb 0.05 in1.3 mm 0.06 in/hr1.5 mm/hr 0.05 in1.3 mm
05:00 AM 34.8°F1.6°C 33.3°F0.7°C 94% 4.0 mph N6.4 kmh N 12.0 mph19.3 kmh 29.99 in1015.6 mb 0.09 in2.3 mm 0.05 in/hr1.3 mm/hr 0.09 in2.3 mm
05:10 AM 34.9°F1.6°C 33.4°F0.8°C 94% 11.0 mph N17.7 kmh N 11.0 mph17.7 kmh 29.99 in1015.6 mb 0.14 in3.6 mm 0.30 in/hr7.6 mm/hr 0.14 in3.6 mm
05:20 AM 35.0°F1.7°C 33.5°F0.8°C 94% 2.0 mph NE3.2 kmh NE 9.0 mph14.5 kmh 29.98 in1015.2 mb 0.19 in4.8 mm 0.30 in/hr7.6 mm/hr 0.19 in4.8 mm
05:30 AM 35.0°F1.7°C 33.5°F0.8°C 94% 5.0 mph NE8.0 kmh NE 12.0 mph19.3 kmh 29.96 in1014.6 mb 0.26 in6.6 mm 0.42 in/hr10.7 mm/hr 0.26 in6.6 mm
05:50 AM 35.1°F1.7°C 33.6°F0.9°C 94% 6.0 mph ENE9.7 kmh ENE 12.0 mph19.3 kmh 29.96 in1014.6 mb 0.46 in11.7 mm 0.60 in/hr15.2 mm/hr 0.46 in11.7 mm
06:01 AM 35.2°F1.8°C 33.7°F0.9°C 94% 6.0 mph NE9.7 kmh NE 14.0 mph22.5 kmh 29.96 in1014.6 mb 0.45 in11.4 mm 0.00 in/hr0.0 mm/hr 0.46 in11.7 mm
06:30 AM 35.2°F1.8°C 33.9°F1.1°C 95% 9.0 mph ENE14.5 kmh ENE 12.0 mph19.3 kmh 29.94 in1013.9 mb 0.31 in7.9 mm 0.00 in/hr0.0 mm/hr 0.46 in11.7 mm
06:50 AM 35.7°F2.1°C 34.4°F1.3°C 95% 3.0 mph E4.8 kmh E 10.0 mph16.1 kmh 29.94 in1013.9 mb 0.11 in2.8 mm 0.00 in/hr0.0 mm/hr 0.46 in11.7 mm
07:00 AM 35.9°F2.2°C 34.6°F1.4°C 95% Calm Calm 11.0 mph17.7 kmh 29.96 in1014.6 mb 0.08 in2.0 mm 0.00 in/hr0.0 mm/hr 0.46 in11.7 mm
07:10 AM 36.1°F2.3°C 34.8°F1.6°C 95% 3.0 mph NE4.8 kmh NE 6.0 mph9.7 kmh 29.95 in1014.2 mb 0.06 in1.5 mm 0.00 in/hr0.0 mm/hr 0.46 in11.7 mm
07:20 AM 36.1°F2.3°C 34.8°F1.6°C 95% 4.0 mph E6.4 kmh E 9.0 mph14.5 kmh 29.94 in1013.9 mb 0.04 in1.0 mm 0.00 in/hr0.0 mm/hr 0.46 in11.7 mm
07:30 AM 36.2°F2.3°C 34.9°F1.6°C 95% 5.0 mph NE8.0 kmh NE 7.0 mph11.3 kmh 29.93 in1013.5 mb 0.03 in0.8 mm 0.00 in/hr0.0 mm/hr 0.46 in11.7 mm
09:10 AM 36.9°F2.7°C 35.6°F2.0°C 95% Calm Calm 6.0 mph9.7 kmh 29.89 in1012.2 mb 0.03 in0.8 mm 0.09 in/hr2.3 mm/hr 0.49 in12.4 mm
09:20 AM 37.0°F2.8°C 35.7°F2.1°C 95% 5.0 mph ENE8.0 kmh ENE 6.0 mph9.7 kmh 29.89 in1012.2 mb 0.03 in0.8 mm 0.00 in/hr0.0 mm/hr 0.49 in12.4 mm
09:40 AM 37.1°F2.8°C 35.8°F2.1°C 95% Calm Calm 3.0 mph4.8 kmh 29.88 in1011.9 mb 0.04 in1.0 mm 0.03 in/hr0.8 mm/hr 0.50 in12.7 mm
09:50 AM 37.2°F2.9°C 35.9°F2.2°C 95% Calm Calm 2.0 mph3.2 kmh 29.88 in1011.9 mb 0.02 in0.5 mm 0.00 in/hr0.0 mm/hr 0.50 in12.7 mm
10:01 AM 37.3°F2.9°C 36.0°F2.2°C 95% 1.0 mph E1.6 kmh E 4.0 mph6.4 kmh 29.88 in1011.9 mb 0.02 in0.5 mm 0.00 in/hr0.0 mm/hr 0.50 in12.7 mm
10:30 AM 37.8°F3.2°C 36.5°F2.5°C 95% Calm Calm 3.0 mph4.8 kmh 29.86 in1011.2 mb 0.03 in0.8 mm 0.02 in/hr0.5 mm/hr 0.51 in13.0 mm
11:00 AM 38.8°F3.8°C 37.8°F3.2°C 96% Calm Calm -- 29.85 in1010.8 mb 0.02 in0.5 mm 0.00 in/hr0.0 mm/hr 0.51 in13.0 mm
11:50 AM 40.9°F4.9°C 39.9°F4.4°C 96% Calm Calm 4.0 mph6.4 kmh 29.81 in1009.5 mb 0.00 in0.0 mm 0.00 in/hr0.0 mm/hr 0.51 in13.0 mm
12:10 PM 41.0°F5.0°C 40.0°F4.4°C 96% Calm Calm 3.0 mph4.8 kmh 29.80 in1009.1 mb 0.06 in1.5 mm 0.09 in/hr2.3 mm/hr 0.57 in14.5 mm
12:20 PM 41.0°F5.0°C 40.0°F4.4°C 96% Calm Calm 4.0 mph6.4 kmh 29.79 in1008.8 mb 0.06 in1.5 mm 0.00 in/hr0.0 mm/hr 0.57 in14.5 mm
12:30 PM 40.8°F4.9°C 39.8°F4.3°C 96% 2.0 mph SE3.2 kmh SE 5.0 mph8.0 kmh 29.78 in1008.5 mb 0.06 in1.5 mm 0.00 in/hr0.0 mm/hr 0.57 in14.5 mm
12:50 PM 41.4°F5.2°C 40.4°F4.7°C 96% Calm Calm 3.0 mph4.8 kmh 29.77 in1008.1 mb 0.06 in1.5 mm 0.00 in/hr0.0 mm/hr 0.57 in14.5 mm
01:00 PM 41.4°F5.2°C 40.4°F4.7°C 96% Calm Calm 4.0 mph6.4 kmh 29.77 in1008.1 mb 0.06 in1.5 mm 0.00 in/hr0.0 mm/hr 0.57 in14.5 mm
01:10 PM 41.5°F5.3°C 40.5°F4.7°C 96% Calm Calm 4.0 mph6.4 kmh 29.76 in1007.8 mb 0.00 in0.0 mm 0.00 in/hr0.0 mm/hr 0.57 in14.5 mm
01:30 PM 42.0°F5.6°C 40.9°F4.9°C 96% 3.0 mph SSE4.8 kmh SSE 4.0 mph6.4 kmh 29.74 in1007.1 mb 0.00 in0.0 mm 0.00 in/hr0.0 mm/hr 0.57 in14.5 mm
01:40 PM 42.5°F5.8°C 41.4°F5.2°C 96% 2.0 mph SSW3.2 kmh SSW 7.0 mph11.3 kmh 29.73 in1006.8 mb 0.00 in0.0 mm 0.00 in/hr0.0 mm/hr 0.57 in14.5 mm
01:50 PM 42.4°F5.8°C 41.3°F5.2°C 96% 3.0 mph S4.8 kmh S 5.0 mph8.0 kmh 29.73 in1006.8 mb 0.00 in0.0 mm 0.00 in/hr0.0 mm/hr 0.57 in14.5 mm
02:00 PM 42.7°F5.9°C 41.6°F5.3°C 96% Calm Calm 6.0 mph9.7 kmh 29.73 in1006.8 mb 0.00 in0.0 mm 0.00 in/hr0.0 mm/hr 0.57 in14.5 mm
02:20 PM 44.7°F7.1°C 43.6°F6.4°C 96% 2.0 mph S3.2 kmh S 7.0 mph11.3 kmh 29.72 in1006.4 mb 0.00 in0.0 mm 0.00 in/hr0.0 mm/hr 0.57 in14.5 mm
02:40 PM 45.5°F7.5°C 44.4°F6.9°C 96% 1.0 mph SSW1.6 kmh SSW 5.0 mph8.0 kmh 29.71 in1006.1 mb 0.00 in0.0 mm 0.00 in/hr0.0 mm/hr 0.57 in14.5 mm
02:50 PM 45.7°F7.6°C 44.6°F7.0°C 96% 4.0 mph S6.4 kmh S 5.0 mph8.0 kmh 29.71 in1006.1 mb 0.00 in0.0 mm 0.00 in/hr0.0 mm/hr 0.57 in14.5 mm
03:00 PM 46.1°F7.8°C 45.0°F7.2°C 96% 4.0 mph SW6.4 kmh SW 7.0 mph11.3 kmh 29.71 in1006.1 mb 0.00 in0.0 mm 0.00 in/hr0.0 mm/hr 0.57 in14.5 mm
03:10 PM 47.1°F8.4°C 46.0°F7.8°C 96% 5.0 mph WSW8.0 kmh WSW 7.0 mph11.3 kmh 29.71 in1006.1 mb 0.00 in0.0 mm 0.00 in/hr0.0 mm/hr 0.57 in14.5 mm
03:20 PM 47.3°F8.5°C 46.2°F7.9°C 96% 5.0 mph SW8.0 kmh SW 7.0 mph11.3 kmh 29.70 in1005.8 mb 0.00 in0.0 mm 0.00 in/hr0.0 mm/hr 0.57 in14.5 mm
03:30 PM 47.1°F8.4°C 46.0°F7.8°C 96% 7.0 mph WSW11.3 kmh WSW 7.0 mph11.3 kmh 29.71 in1006.1 mb 0.00 in0.0 mm 0.00 in/hr0.0 mm/hr 0.57 in14.5 mm
03:40 PM 47.0°F8.3°C 45.9°F7.7°C 96% 4.0 mph WSW6.4 kmh WSW 9.0 mph14.5 kmh 29.70 in1005.8 mb 0.00 in0.0 mm 0.00 in/hr0.0 mm/hr 0.57 in14.5 mm
03:50 PM 46.7°F8.2°C 45.6°F7.6°C 96% 4.0 mph WSW6.4 kmh WSW 6.0 mph9.7 kmh 29.70 in1005.8 mb 0.00 in0.0 mm 0.00 in/hr0.0 mm/hr 0.57 in14.5 mm
04:01 PM 46.4°F8.0°C 45.3°F7.4°C 96% Calm Calm 4.0 mph6.4 kmh 29.70 in1005.8 mb 0.00 in0.0 mm 0.00 in/hr0.0 mm/hr 0.57 in14.5 mm
04:10 PM 46.4°F8.0°C 45.3°F7.4°C 96% 2.0 mph WSW3.2 kmh WSW 4.0 mph6.4 kmh 29.69 in1005.4 mb 0.00 in0.0 mm 0.00 in/hr0.0 mm/hr 0.57 in14.5 mm
04:20 PM 46.5°F8.1°C 45.4°F7.4°C 96% 3.0 mph WSW4.8 kmh WSW 6.0 mph9.7 kmh 29.69 in1005.4 mb 0.00 in0.0 mm 0.00 in/hr0.0 mm/hr 0.57 in14.5 mm
04:30 PM 46.5°F8.1°C 45.4°F7.4°C 96% 3.0 mph WSW4.8 kmh WSW 5.0 mph8.0 kmh 29.69 in1005.4 mb 0.00 in0.0 mm 0.00 in/hr0.0 mm/hr 0.57 in14.5 mm
04:40 PM 46.5°F8.1°C 45.4°F7.4°C 96% 2.0 mph WSW3.2 kmh WSW 5.0 mph8.0 kmh 29.68 in1005.1 mb 0.00 in0.0 mm 0.00 in/hr0.0 mm/hr 0.57 in14.5 mm
04:50 PM 46.5°F8.1°C 45.4°F7.4°C 96% Calm Calm 6.0 mph9.7 kmh 29.68 in1005.1 mb 0.00 in0.0 mm 0.00 in/hr0.0 mm/hr 0.57 in14.5 mm
05:00 PM 46.3°F7.9°C 45.2°F7.3°C 96% Calm Calm 4.0 mph6.4 kmh 29.68 in1005.1 mb 0.00 in0.0 mm 0.00 in/hr0.0 mm/hr 0.57 in14.5 mm
05:10 PM 46.3°F7.9°C 45.2°F7.3°C 96% Calm Calm 1.0 mph1.6 kmh 29.67 in1004.7 mb 0.00 in0.0 mm 0.00 in/hr0.0 mm/hr 0.57 in14.5 mm
05:20 PM 46.1°F7.8°C 45.0°F7.2°C 96% Calm Calm -- 29.67 in1004.7 mb 0.00 in0.0 mm 0.00 in/hr0.0 mm/hr 0.57 in14.5 mm
05:30 PM 46.0°F7.8°C 44.9°F7.2°C 96% Calm Calm -- 29.67 in1004.7 mb 0.00 in0.0 mm 0.00 in/hr0.0 mm/hr 0.57 in14.5 mm
05:50 PM 46.1°F7.8°C 45.0°F7.2°C 96% Calm Calm -- 29.66 in1004.4 mb 0.02 in0.5 mm 0.06 in/hr1.5 mm/hr 0.59 in15.0 mm
06:00 PM 45.9°F7.7°C 44.8°F7.1°C 96% Calm Calm -- 29.66 in1004.4 mb 0.04 in1.0 mm 0.02 in/hr0.5 mm/hr 0.61 in15.5 mm
06:10 PM 45.7°F7.6°C 44.6°F7.0°C 96% Calm Calm 1.0 mph1.6 kmh 29.65 in1004.1 mb 0.04 in1.0 mm 0.00 in/hr0.0 mm/hr 0.61 in15.5 mm
06:20 PM 46.2°F7.9°C 45.1°F7.3°C 96% Calm Calm -- 29.65 in1004.1 mb 0.05 in1.3 mm 0.06 in/hr1.5 mm/hr 0.62 in15.7 mm
06:30 PM 45.9°F7.7°C 45.1°F7.3°C 97% Calm Calm 2.0 mph3.2 kmh 29.63 in1003.4 mb 0.05 in1.3 mm 0.00 in/hr0.0 mm/hr 0.62 in15.7 mm
06:40 PM 45.7°F7.6°C 44.6°F7.0°C 96% Calm Calm 1.0 mph1.6 kmh 29.63 in1003.4 mb 0.05 in1.3 mm 0.00 in/hr0.0 mm/hr 0.62 in15.7 mm
06:50 PM 45.2°F7.3°C 44.4°F6.9°C 97% 1.0 mph NW1.6 kmh NW 3.0 mph4.8 kmh 29.63 in1003.4 mb 0.05 in1.3 mm 0.00 in/hr0.0 mm/hr 0.62 in15.7 mm
07:00 PM 44.9°F7.2°C 43.8°F6.6°C 96% Calm Calm 4.0 mph6.4 kmh 29.62 in1003.0 mb 0.04 in1.0 mm 0.00 in/hr0.0 mm/hr 0.62 in15.7 mm
07:10 PM 44.8°F7.1°C 44.0°F6.7°C 97% 2.0 mph NE3.2 kmh NE 3.0 mph4.8 kmh 29.61 in1002.7 mb 0.06 in1.5 mm 0.12 in/hr3.0 mm/hr 0.64 in16.3 mm
07:20 PM 44.9°F7.2°C 44.1°F6.7°C 97% Calm Calm 3.0 mph4.8 kmh 29.60 in1002.4 mb 0.06 in1.5 mm 0.00 in/hr0.0 mm/hr 0.64 in16.3 mm
07:30 PM 45.1°F7.3°C 44.0°F6.7°C 96% 2.0 mph NE3.2 kmh NE 3.0 mph4.8 kmh 29.60 in1002.4 mb 0.07 in1.8 mm 0.06 in/hr1.5 mm/hr 0.65 in16.5 mm
07:40 PM 45.0°F7.2°C 44.2°F6.8°C 97% Calm Calm 1.0 mph1.6 kmh 29.60 in1002.4 mb 0.08 in2.0 mm 0.06 in/hr1.5 mm/hr 0.66 in16.8 mm
07:50 PM 45.2°F7.3°C 44.4°F6.9°C 97% Calm Calm 1.0 mph1.6 kmh 29.59 in1002.0 mb 0.10 in2.5 mm 0.12 in/hr3.0 mm/hr 0.68 in17.3 mm
08:01 PM 45.1°F7.3°C 44.3°F6.8°C 97% 3.0 mph NW4.8 kmh NW 4.0 mph6.4 kmh 29.59 in1002.0 mb 0.11 in2.8 mm 0.01 in/hr0.3 mm/hr 0.69 in17.5 mm
08:10 PM 44.9°F7.2°C 44.1°F6.7°C 97% 2.0 mph N3.2 kmh N 3.0 mph4.8 kmh 29.59 in1002.0 mb 0.14 in3.6 mm 0.20 in/hr5.1 mm/hr 0.72 in18.3 mm
08:20 PM 44.8°F7.1°C 44.0°F6.7°C 97% Calm Calm 3.0 mph4.8 kmh 29.58 in1001.7 mb 0.19 in4.8 mm 0.30 in/hr7.6 mm/hr 0.77 in19.6 mm
08:30 PM 44.8°F7.1°C 44.0°F6.7°C 97% Calm Calm 3.0 mph4.8 kmh 29.58 in1001.7 mb 0.22 in5.6 mm 0.18 in/hr4.6 mm/hr 0.80 in20.3 mm
08:40 PM 44.7°F7.1°C 43.9°F6.6°C 97% 3.0 mph N4.8 kmh N 5.0 mph8.0 kmh 29.57 in1001.4 mb 0.24 in6.1 mm 0.12 in/hr3.0 mm/hr 0.82 in20.8 mm
08:50 PM 44.6°F7.0°C 43.8°F6.6°C 97% 7.0 mph NW11.3 kmh NW 7.0 mph11.3 kmh 29.57 in1001.4 mb 0.26 in6.6 mm 0.12 in/hr3.0 mm/hr 0.84 in21.3 mm
09:00 PM 44.5°F6.9°C 43.7°F6.5°C 97% 4.0 mph NW6.4 kmh NW 7.0 mph11.3 kmh 29.56 in1001.0 mb 0.27 in6.9 mm 0.01 in/hr0.3 mm/hr 0.85 in21.6 mm
09:10 PM 44.5°F6.9°C 43.7°F6.5°C 97% 2.0 mph WSW3.2 kmh WSW 6.0 mph9.7 kmh 29.57 in1001.4 mb 0.24 in6.1 mm 0.00 in/hr0.0 mm/hr 0.85 in21.6 mm
09:20 PM 44.4°F6.9°C 43.6°F6.4°C 97% Calm Calm 6.0 mph9.7 kmh 29.56 in1001.0 mb 0.23 in5.8 mm 0.00 in/hr0.0 mm/hr 0.85 in21.6 mm
09:30 PM 44.2°F6.8°C 43.4°F6.3°C 97% Calm Calm 5.0 mph8.0 kmh 29.56 in1001.0 mb 0.22 in5.6 mm 0.00 in/hr0.0 mm/hr 0.85 in21.6 mm
09:40 PM 44.1°F6.7°C 43.3°F6.3°C 97% Calm Calm 3.0 mph4.8 kmh 29.56 in1001.0 mb 0.22 in5.6 mm 0.00 in/hr0.0 mm/hr 0.85 in21.6 mm
09:50 PM 44.0°F6.7°C 43.2°F6.2°C 97% Calm Calm 7.0 mph11.3 kmh 29.56 in1001.0 mb 0.21 in5.3 mm 0.00 in/hr0.0 mm/hr 0.85 in21.6 mm
10:01 PM 43.6°F6.4°C 42.8°F6.0°C 97% 4.0 mph NW6.4 kmh NW 10.0 mph16.1 kmh 29.56 in1001.0 mb 0.22 in5.6 mm 0.01 in/hr0.3 mm/hr 0.86 in21.8 mm
10:10 PM 42.9°F6.1°C 42.1°F5.6°C 97% 10.0 mph NW16.1 kmh NW 12.0 mph19.3 kmh 29.55 in1000.7 mb 0.24 in6.1 mm 0.13 in/hr3.3 mm/hr 0.88 in22.4 mm
10:20 PM 42.6°F5.9°C 41.8°F5.4°C 97% 6.0 mph NW9.7 kmh NW 10.0 mph16.1 kmh 29.53 in1000.0 mb 0.22 in5.6 mm 0.00 in/hr0.0 mm/hr 0.88 in22.4 mm
10:30 PM 42.5°F5.8°C 41.7°F5.4°C 97% 6.0 mph NW9.7 kmh NW 9.0 mph14.5 kmh 29.53 in1000.0 mb 0.19 in4.8 mm 0.00 in/hr0.0 mm/hr 0.88 in22.4 mm
10:40 PM 42.3°F5.7°C 41.5°F5.3°C 97% 6.0 mph NW9.7 kmh NW 11.0 mph17.7 kmh 29.54 in1000.3 mb 0.17 in4.3 mm 0.00 in/hr0.0 mm/hr 0.88 in22.4 mm
10:50 PM 41.9°F5.5°C 40.9°F4.9°C 96% 9.0 mph NW14.5 kmh NW 11.0 mph17.7 kmh 29.53 in1000.0 mb 0.15 in3.8 mm 0.00 in/hr0.0 mm/hr 0.88 in22.4 mm
11:00 PM 41.7°F5.4°C 40.9°F4.9°C 97% 2.0 mph W3.2 kmh W 10.0 mph16.1 kmh 29.56 in1001.0 mb 0.11 in2.8 mm 0.00 in/hr0.0 mm/hr 0.88 in22.4 mm
11:10 PM 41.5°F5.3°C 40.5°F4.7°C 96% 5.0 mph NW8.0 kmh NW 8.0 mph12.9 kmh 29.55 in1000.7 mb 0.09 in2.3 mm 0.00 in/hr0.0 mm/hr 0.88 in22.4 mm
11:20 PM 41.2°F5.1°C 40.2°F4.6°C 96% 8.0 mph W12.9 kmh W 16.0 mph25.7 kmh 29.55 in1000.7 mb 0.09 in2.3 mm 0.00 in/hr0.0 mm/hr 0.88 in22.4 mm
11:30 PM 41.0°F5.0°C 40.0°F4.4°C 96% 3.0 mph W4.8 kmh W 12.0 mph19.3 kmh 29.56 in1001.0 mb 0.09 in2.3 mm 0.00 in/hr0.0 mm/hr 0.88 in22.4 mm
11:40 PM 40.7°F4.8°C 39.7°F4.3°C 96% 3.0 mph W4.8 kmh W 10.0 mph16.1 kmh 29.56 in1001.0 mb 0.17 in4.3 mm 0.48 in/hr12.2 mm/hr 0.96 in24.4 mm
11:50 PM 40.5°F4.7°C 39.5°F4.2°C 96% 2.0 mph W3.2 kmh W 10.0 mph16.1 kmh 29.56 in1001.0 mb 0.16 in4.1 mm 0.00 in/hr0.0 mm/hr 0.96 in24.4 mm